Latest Weather Observations for Bendigo

IDV60801

Issued at 9:05 am EST Tuesday 2 September 2014 (issued every 30 minutes, with the page automatically refreshed every 10 minutes)

About weather observations | Map of weather stations | Latest weather observations for VIC | Other Formats
Station Details ID: 081123 Name: BENDIGO AIRPORT Lat: -36.74 Lon: 144.33 Height: 208.0 m
Data from the previous 72 hours. | See also: Recent months at Bendigo
Date/Time
EST
Temp
°C
App
Temp
°C
Dew
Point
Rel
Hum
%
Delta-T
°C
Wind Press
QNH
hPa
Press
MSL
hPa
Rain
since 9 am
mm
Dir
 
Spd
km/h
Gust
km/h
Spd
kts
Gust
kts
02/09:00am 9.8 5.7 6.3 79 1.6 SW 17 26 9 14 1017.9 1018.0 9.6
02/08:30am 8.8 4.7 6.4 85 1.1 SW 17 24 9 13 1017.5 1017.6 9.6
02/08:00am 7.6 3.5 6.1 90 0.7 SW 17 24 9 13 1017.2 1017.3 9.6
02/07:30am 5.3 4.1 4.7 96 0.3 CALM 0 0 0 0 1016.7 1016.9 9.6
02/07:00am 5.4 4.3 5.1 98 0.1 CALM 0 6 0 3 1016.4 1016.6 9.6
02/06:30am 4.8 2.5 4.7 99 0.0 SSW 6 11 3 6 1016.0 1016.2 9.6
02/06:00am 5.3 3.8 5.0 98 0.1 S 2 9 1 5 1015.4 1015.6 9.6
02/05:30am 5.7 4.5 4.8 94 0.4 CALM 0 2 0 1 1015.3 1015.5 9.6
02/05:00am 6.0 2.8 5.0 93 0.4 S 11 19 6 10 1014.8 1015.0 9.6
02/04:46am 6.5 3.4 5.5 93 0.4 SW 11 17 6 9 1014.7 1014.9 9.6
02/04:30am 6.3 2.8 5.3 93 0.4 SW 13 20 7 11 1014.5 1014.7 9.6
02/04:05am 6.7 2.0 6.0 95 0.3 SW 20 30 11 16 1014.3 1014.5 9.6
02/04:00am 6.5 2.4 6.1 97 0.2 SSW 17 26 9 14 1014.2 1014.3 9.6
02/03:30am 6.1 2.7 5.7 97 0.2 SSW 13 20 7 11 1014.1 1014.2 9.6
02/03:00am 6.0 2.5 5.4 96 0.3 SW 13 17 7 9 1014.1 1014.2 9.6
02/02:30am 6.5 3.2 6.2 98 0.1 SW 13 22 7 12 1014.0 1014.1 9.6
02/02:00am 5.5 2.4 5.4 99 0.0 SW 11 15 6 8 1014.0 1014.1 9.6
02/01:30am 5.7 3.5 5.4 98 0.1 WSW 6 9 3 5 1014.0 1014.1 9.6
02/01:00am 5.7 2.5 5.3 97 0.2 SW 11 15 6 8 1013.9 1014.0 9.4
02/12:30am 6.0 2.9 5.4 96 0.3 SW 11 15 6 8 1013.8 1013.9 9.4
02/12:00am 6.6 3.1 5.6 93 0.4 WSW 13 17 7 9 1013.8 1013.9 9.4
 
Date/Time
EST
Temp
°C
App
Temp
°C
Dew
Point
Rel
Hum
%
Delta-T
°C
Wind Press
QNH
hPa
Press
MSL
hPa
Rain
since 9 am
mm
Dir
 
Spd
km/h
Gust
km/h
Spd
kts
Gust
kts
01/11:59pm 6.7 3.3 5.8 94 0.4 WSW 13 17 7 9 1013.7 1013.8 9.4
01/11:49pm 6.6 2.8 5.9 95 0.3 WSW 15 19 8 10 1013.7 1013.8 9.4
01/11:30pm 6.3 2.8 5.6 95 0.3 WSW 13 15 7 8 1013.6 1013.7 9.4
01/11:00pm 6.4 2.6 5.8 96 0.3 WSW 15 20 8 11 1013.4 1013.5 9.4
01/10:30pm 5.2 2.0 5.1 99 0.0 W 11 15 6 8 1013.3 1013.4 9.4
01/10:00pm 4.7 3.0 4.1 96 0.3 S 2 7 1 4 1013.2 1013.3 9.4
01/09:33pm 5.4 4.3 5.0 97 0.2 CALM 0 0 0 0 1013.0 1013.1 9.4
01/09:30pm 5.4 4.3 5.1 98 0.1 CALM 0 0 0 0 1013.0 1013.1 9.4
01/09:13pm 4.7 2.6 4.0 95 0.3 W 4 7 2 4 1013.0 1013.1 9.4
01/09:00pm 6.0 5.0 5.6 97 0.2 CALM 0 6 0 3 1012.8 1012.9 9.4
01/08:30pm 7.2 5.0 6.3 94 0.4 NW 7 9 4 5 1012.3 1012.4 9.4
01/08:00pm 7.6 5.6 6.1 90 0.7 SSW 6 7 3 4 1012.1 1012.2 9.4
01/07:30pm 8.8 6.7 5.9 82 1.3 SSW 6 9 3 5 1011.5 1011.7 9.4
01/07:00pm 8.7 4.9 6.0 83 1.2 S 15 24 8 13 1011.0 1011.2 9.4
01/06:30pm 8.6 4.6 6.6 87 0.9 SSW 17 28 9 15 1010.7 1010.9 9.4
01/06:00pm 9.1 4.7 7.2 88 0.9 SW 20 32 11 17 1010.6 1010.8 9.4
01/05:30pm 9.4 7.3 8.3 93 0.5 W 9 19 5 10 1010.4 1010.6 8.6
01/05:27pm 9.5 7.4 8.4 93 0.5 W 9 15 5 8 1010.3 1010.5 8.4
01/05:08pm 10.4 3.9 8.0 85 1.2 WNW 32 37 17 20 1010.2 1010.4 7.8
01/05:00pm 11.6 9.8 11.0 96 0.3 NW 11 17 6 9 1009.6 1009.7 7.2
01/04:43pm 11.5 9.7 10.7 95 0.4 NNW 11 17 6 9 1009.3 1009.4 7.2
01/04:30pm 11.5 9.6 10.6 94 0.5 NNW 11 15 6 8 1009.1 1009.2 7.2
01/04:19pm 11.6 10.2 10.8 95 0.4 NW 9 13 5 7 1009.2 1009.3 7.2
01/04:00pm 11.7 9.9 10.9 95 0.4 N 11 13 6 7 1009.1 1009.2 7.2
01/03:33pm 11.5 9.7 10.7 95 0.4 NW 11 17 6 9 1009.1 1009.2 7.2
01/03:30pm 11.5 9.7 10.9 96 0.3 NW 11 15 6 8 1009.1 1009.2 7.2
01/03:10pm 11.4 9.5 10.6 95 0.4 NW 11 17 6 9 1009.1 1009.2 7.2
01/03:00pm 11.4 9.2 10.8 96 0.3 NNW 13 20 7 11 1009.1 1009.2 7.2
01/02:30pm 11.7 10.8 11.2 97 0.3 NNW 7 11 4 6 1009.3 1009.4 7.2
01/02:25pm 11.6 10.6 11.0 96 0.3 NW 7 11 4 6 1009.3 1009.4 7.2
01/02:02pm 11.5 10.5 10.9 96 0.3 NW 7 13 4 7 1009.5 1009.6 7.0
01/02:00pm 11.5 10.1 11.0 97 0.3 NW 9 13 5 7 1009.5 1009.6 7.0
01/01:30pm 11.4 9.2 10.9 97 0.3 WNW 13 19 7 10 1009.5 1009.6 6.6
01/01:00pm 11.1 9.3 10.8 98 0.2 WNW 11 15 6 8 1009.8 1009.9 6.4
01/12:34pm 10.9 9.4 10.6 98 0.2 NNW 9 13 5 7 1010.0 1010.1 6.2
01/12:31pm 10.8 9.3 10.5 98 0.2 NNW 9 13 5 7 1010.1 1010.2 6.2
01/12:30pm 10.8 9.3 10.5 98 0.2 NNW 9 13 5 7 1010.1 1010.2 6.2
01/12:14pm 10.6 9.3 10.1 97 0.3 NNW 7 11 4 6 1010.0 1010.1 5.8
01/12:02pm 10.6 10.3 10.0 96 0.3 N 2 9 1 5 1010.1 1010.2 5.2
01/12:00pm 10.5 9.8 9.9 96 0.3 NNE 4 9 2 5 1010.0 1010.1 5.2
01/11:30am 10.5 9.5 8.9 90 0.8 NW 4 7 2 4 1010.2 1010.4 3.6
01/11:00am 10.9 10.2 8.7 86 1.1 WNW 2 7 1 4 1010.4 1010.6 1.6
01/10:51am 11.3 9.6 8.5 83 1.4 WNW 7 11 4 6 1010.3 1010.5 1.0
01/10:30am 12.5 10.0 6.5 67 2.9 W 9 15 5 8 1010.1 1010.2 0.2
01/10:00am 12.5 11.6 6.1 65 3.1 CALM 0 0 0 0 1010.0 1010.1 0.0
01/09:30am 12.0 11.0 5.6 65 3.0 CALM 0 0 0 0 1010.4 1010.8 0.0
01/09:00am 10.8 8.9 6.6 75 2.0 SSE 6 7 3 4 1010.2 1010.5 0.0
01/08:30am 10.0 8.8 6.5 79 1.7 S 2 9 1 5 1010.2 1010.5 0.0
01/08:00am 9.7 8.0 5.7 76 1.9 SSE 4 7 2 4 1010.0 1010.3 0.0
01/07:30am 9.7 7.3 5.3 74 2.0 ESE 7 9 4 5 1010.0 1010.3 0.0
01/07:00am 9.8 7.3 5.0 72 2.2 E 7 11 4 6 1009.7 1010.0 0.0
01/06:30am 10.1 7.8 4.9 70 2.4 ESE 6 9 3 5 1010.1 1010.4 0.0
01/06:00am 10.8 7.9 4.7 66 2.8 ESE 9 15 5 8 1010.0 1010.3 0.0
01/05:30am 10.3 7.9 5.1 70 2.4 E 7 13 4 7 1009.9 1010.2 0.0
01/05:00am 10.4 8.9 5.0 69 2.5 S 2 9 1 5 1010.2 1010.5 0.0
01/04:30am 10.9 8.6 5.0 67 2.7 N 6 9 3 5 1010.2 1010.5 0.0
01/04:00am 11.6 8.3 4.6 62 3.2 NE 11 17 6 9 1009.3 1009.6 0.0
01/03:30am 11.3 5.6 5.0 65 2.9 ENE 24 30 13 16 1009.2 1009.5 0.0
01/03:00am 10.8 9.0 5.3 69 2.5 NE 4 11 2 6 1010.9 1011.3 0.0
01/02:30am 11.2 8.0 5.3 67 2.7 NNE 11 17 6 9 1011.1 1011.5 0.0
01/02:00am 11.7 7.8 5.3 65 3.0 NNE 15 20 8 11 1011.2 1011.6 0.0
01/01:30am 11.8 8.0 5.7 66 2.9 NNE 15 20 8 11 1011.7 1012.1 0.0
01/01:00am 11.4 8.0 5.7 68 2.7 NNE 13 17 7 9 1012.1 1012.4 0.0
01/12:30am 12.0 9.0 5.9 66 2.9 NE 11 15 6 8 1012.4 1012.7 0.0
01/12:00am 12.0 9.0 5.9 66 2.9 NNE 11 15 6 8 1012.5 1012.8 0.0
 
Date/Time
EST
Temp
°C
App
Temp
°C
Dew
Point
Rel
Hum
%
Delta-T
°C
Wind Press
QNH
hPa
Press
MSL
hPa
Rain
since 9 am
mm
Dir
 
Spd
km/h
Gust
km/h
Spd
kts
Gust
kts
31/11:30pm 12.9 9.9 6.0 63 3.3 NNE 11 15 6 8 1012.6 1012.9 0.0
31/11:00pm 13.9 11.3 6.0 59 3.8 NNE 9 13 5 7 1012.6 1012.9 0.0
31/10:30pm 13.8 9.2 6.4 61 3.6 ENE 20 32 11 17 1012.3 1012.6 0.0
31/10:00pm 14.5 10.5 6.6 59 3.9 NE 17 22 9 12 1013.3 1013.6 0.0
31/09:30pm 14.7 10.7 6.8 59 3.9 NE 17 20 9 11 1013.7 1014.0 0.0
31/09:00pm 14.7 10.8 7.0 60 3.8 NE 17 24 9 13 1013.7 1014.0 0.0
31/08:30pm 15.1 11.6 7.4 60 3.8 NE 15 19 8 10 1014.0 1014.3 0.0
31/08:00pm 15.3 12.7 7.6 60 3.9 NE 11 17 6 9 1014.3 1014.7 0.0
31/07:30pm 15.6 13.0 7.9 60 3.9 NE 11 17 6 9 1014.4 1014.8 0.0
31/07:00pm 16.0 12.7 8.2 60 4.0 ENE 15 19 8 10 1014.0 1014.3 0.0
31/06:30pm 16.5 13.2 8.2 58 4.3 ENE 15 20 8 11 1014.0 1014.3 0.0
31/06:00pm 16.6 13.5 7.3 54 4.7 ENE 13 17 7 9 1014.2 1014.5 0.0
31/05:30pm 17.9 14.7 7.0 49 5.5 NE 13 20 7 11 1014.3 1014.7 0.0
31/05:00pm 18.7 15.5 6.9 46 6.0 NE 13 19 7 10 1014.4 1014.8 0.0
31/04:30pm 19.2 15.3 7.0 45 6.2 NE 17 24 9 13 1014.3 1014.7 0.0
31/04:00pm 19.7 15.2 7.1 44 6.5 NNE 20 28 11 15 1014.4 1014.8 0.0
31/03:30pm 19.3 14.4 6.8 44 6.3 NE 22 28 12 15 1014.6 1015.0 0.0
31/03:00pm 19.4 15.1 6.8 44 6.4 NNE 19 24 10 13 1015.0 1015.4 0.0
31/02:30pm 19.5 15.3 8.2 48 5.9 NE 20 32 11 17 1015.5 1015.9 0.0
31/02:00pm 18.9 15.1 7.4 47 5.9 NE 17 24 9 13 1016.0 1016.4 0.0
31/01:30pm 18.7 14.3 7.2 47 5.9 NNE 20 28 11 15 1016.4 1016.8 0.0
31/01:00pm 18.2 14.0 7.3 49 5.5 NE 19 30 10 16 1017.1 1017.4 0.0
31/12:30pm 18.0 13.9 7.7 51 5.3 NE 19 26 10 14 1017.7 1018.0 0.0
31/12:00pm 17.7 14.2 8.6 55 4.7 NNE 17 20 9 11 1018.1 1018.4 0.0
31/11:30am 16.3 12.8 7.3 55 4.5 NNE 15 20 8 11 1018.8 1019.2 0.0
31/11:00am 15.0 11.0 6.6 57 4.1 NNE 17 22 9 12 1019.1 1019.5 0.0
31/10:30am 14.7 11.7 5.8 55 4.3 NNE 11 19 6 10 1019.5 1019.9 0.0
31/10:00am 13.8 10.7 5.7 58 3.9 NE 11 17 6 9 1019.9 1020.3 0.0
31/09:30am 12.5 10.5 7.0 69 2.7 ENE 7 15 4 8 1020.4 1020.8 0.0
31/09:00am 11.2 9.1 8.1 81 1.5 ESE 9 13 5 7 1020.5 1020.9 0.0
31/08:30am 10.2 8.4 7.8 85 1.2 SE 7 11 4 6 1020.7 1021.1 0.0
31/08:00am 8.5 6.3 7.9 96 0.3 SE 9 11 5 6 1020.6 1021.0 0.0
31/07:30am 6.8 4.3 6.7 99 0.0 SSE 9 13 5 7 1020.7 1021.1 0.0
31/07:00am 6.2 4.0 6.1 99 0.0 SSE 7 13 4 7 1020.5 1020.9 0.0
31/06:30am 6.0 3.4 5.9 99 0.0 SSE 9 13 5 7 1020.4 1020.8 0.0
31/06:00am 5.9 3.2 5.8 99 0.0 SSE 9 11 5 6 1020.0 1020.4 0.0
31/05:30am 6.4 3.0 6.1 98 0.1 SE 13 17 7 9 1019.7 1020.1 0.0
31/05:00am 6.3 4.1 6.0 98 0.1 SE 7 13 4 7 1019.6 1020.0 0.0
31/04:30am 5.7 2.6 5.4 98 0.1 SSE 11 15 6 8 1019.7 1020.1 0.0
31/04:00am 5.9 3.2 5.8 99 0.0 SSE 9 11 5 6 1019.6 1020.0 0.0
31/03:30am 5.2 2.9 4.9 98 0.1 SE 6 11 3 6 1019.7 1020.1 0.0
31/03:00am 4.7 3.4 4.1 96 0.3 CALM 0 0 0 0 1019.9 1020.3 0.0
31/02:30am 5.7 3.5 5.3 97 0.2 SSE 6 7 3 4 1020.1 1020.5 0.0
31/02:00am 4.6 3.3 4.0 96 0.3 CALM 0 0 0 0 1020.3 1020.7 0.0
31/01:30am 5.1 3.9 4.5 96 0.3 CALM 0 0 0 0 1020.7 1021.1 0.0
31/01:00am 4.9 3.6 4.0 94 0.4 CALM 0 0 0 0 1020.9 1021.3 0.0
31/12:30am 5.8 4.7 5.1 95 0.3 CALM 0 0 0 0 1021.0 1021.4 0.0
31/12:00am 6.5 5.5 5.6 94 0.4 CALM 0 0 0 0 1021.2 1021.6 0.0
 
Date/Time
EST
Temp
°C
App
Temp
°C
Dew
Point
Rel
Hum
%
Delta-T
°C
Wind Press
QNH
hPa
Press
MSL
hPa
Rain
since 9 am
mm
Dir
 
Spd
km/h
Gust
km/h
Spd
kts
Gust
kts
30/11:30pm 7.3 5.3 6.4 94 0.4 SSE 6 7 3 4 1021.3 1021.7 0.0
30/11:00pm 6.1 5.0 5.2 94 0.4 CALM 0 0 0 0 1021.6 1022.0 0.0
30/10:30pm 7.4 6.6 6.7 95 0.3 CALM 0 0 0 0 1022.0 1022.3 0.0
30/10:00pm 6.7 5.6 5.3 91 0.6 CALM 0 0 0 0 1022.2 1022.5 0.0
30/09:30pm 7.2 6.2 5.8 91 0.6 CALM 0 0 0 0 1022.3 1022.6 0.0
30/09:00pm 8.2 7.4 6.5 89 0.8 CALM 0 0 0 0 1022.3 1022.6 0.0
30/08:30pm 8.7 8.0 7.0 89 0.8 CALM 0 0 0 0 1022.2 1022.5 0.0
30/08:00pm 9.1 8.4 7.1 87 0.9 CALM 0 0 0 0 1022.1 1022.4 0.0
30/07:30pm 9.1 8.3 6.7 85 1.1 CALM 0 0 0 0 1022.0 1022.3 0.0
30/07:00pm 9.6 9.0 7.2 85 1.1 CALM 0 0 0 0 1021.9 1022.2 0.0
30/06:30pm 12.3 11.7 7.4 72 2.4 CALM 0 0 0 0 1021.9 1022.2 0.0
30/06:00pm 15.5 15.2 8.7 64 3.5 CALM 0 0 0 0 1021.7 1022.1 0.0
30/05:30pm 17.0 15.4 8.9 59 4.2 NE 7 13 4 7 1021.7 1022.1 0.0
30/05:00pm 18.0 15.6 8.6 54 4.9 NNE 11 15 6 8 1021.7 1022.1 0.0
30/04:30pm 18.2 16.0 7.9 51 5.3 N 9 15 5 8 1021.7 1022.1 0.0
30/04:00pm 18.6 15.7 8.3 51 5.3 N 13 20 7 11 1021.9 1022.2 0.0
30/03:30pm 18.3 14.8 7.1 48 5.7 N 15 26 8 14 1022.0 1022.3 0.0
30/03:00pm 18.6 16.1 8.0 50 5.5 N 11 24 6 13 1022.2 1022.5 0.0
30/02:30pm 18.2 15.4 8.7 54 5.0 NNE 13 22 7 12 1022.4 1022.8 0.0
30/02:00pm 18.0 16.6 9.4 57 4.5 NNE 7 20 4 11 1022.8 1023.2 0.0
30/01:30pm 18.3 16.0 10.4 60 4.3 NNE 13 24 7 13 1023.3 1023.7 0.0
30/01:00pm 17.4 14.9 8.3 55 4.7 N 11 20 6 11 1023.9 1024.3 0.0
30/12:30pm 16.9 14.5 8.6 58 4.3 NNE 11 20 6 11 1024.4 1024.8 0.0
30/12:00pm 16.9 14.3 9.3 61 4.0 N 13 17 7 9 1024.7 1025.1 0.0
30/11:30am 15.9 12.4 8.9 63 3.6 N 17 22 9 12 1025.1 1025.5 0.0
30/11:00am 15.7 13.5 8.0 60 3.9 NE 9 17 5 9 1025.4 1025.8 0.0
30/10:30am 14.9 12.5 8.8 67 3.1 NE 11 19 6 10 1025.7 1026.1 0.0
30/10:00am 14.2 12.3 9.0 71 2.7 NE 9 13 5 7 1026.0 1026.4 0.0
30/09:30am 12.8 10.8 8.5 75 2.2 NE 9 13 5 7 1026.2 1026.6 0.0

Other Formats:

Comma delimited format used in spreadsheet applications
http://www.bom.gov.au/fwo/IDV60801/IDV60801.94855.axf

JavaScript Object Notation format (JSON) in row-major order
http://www.bom.gov.au/fwo/IDV60801/IDV60801.94855.json